sensor_id;sensor_type;location;lat;lon;timestamp;P1;durP1;ratioP1;P2;durP2;ratioP2
6858;SDS011;3468;42.824;23.240;2024-01-30T00:01:13;7.13;;;3.30;;
6858;SDS011;3468;42.824;23.240;2024-01-30T00:03:40;8.03;;;4.37;;
6858;SDS011;3468;42.824;23.240;2024-01-30T00:06:07;14.83;;;5.70;;
6858;SDS011;3468;42.824;23.240;2024-01-30T00:08:34;12.97;;;6.20;;
6858;SDS011;3468;42.824;23.240;2024-01-30T00:11:01;10.73;;;5.83;;
6858;SDS011;3468;42.824;23.240;2024-01-30T00:13:27;14.37;;;6.20;;
6858;SDS011;3468;42.824;23.240;2024-01-30T00:15:54;13.60;;;6.23;;
6858;SDS011;3468;42.824;23.240;2024-01-30T00:18:22;15.60;;;6.10;;
6858;SDS011;3468;42.824;23.240;2024-01-30T00:20:49;15.27;;;6.20;;
6858;SDS011;3468;42.824;23.240;2024-01-30T00:23:15;17.83;;;6.73;;
6858;SDS011;3468;42.824;23.240;2024-01-30T00:25:42;16.23;;;6.87;;
6858;SDS011;3468;42.824;23.240;2024-01-30T00:28:09;14.63;;;6.00;;
6858;SDS011;3468;42.824;23.240;2024-01-30T00:30:36;13.60;;;6.07;;
6858;SDS011;3468;42.824;23.240;2024-01-30T00:33:03;9.83;;;5.73;;
6858;SDS011;3468;42.824;23.240;2024-01-30T00:35:31;10.00;;;5.23;;
6858;SDS011;3468;42.824;23.240;2024-01-30T00:37:58;8.37;;;4.53;;
6858;SDS011;3468;42.824;23.240;2024-01-30T00:40:25;9.30;;;4.07;;
6858;SDS011;3468;42.824;23.240;2024-01-30T00:42:51;11.80;;;5.00;;
6858;SDS011;3468;42.824;23.240;2024-01-30T00:45:18;14.80;;;4.83;;
6858;SDS011;3468;42.824;23.240;2024-01-30T00:47:45;13.80;;;6.10;;
6858;SDS011;3468;42.824;23.240;2024-01-30T00:50:12;14.20;;;5.80;;
6858;SDS011;3468;42.824;23.240;2024-01-30T00:52:40;22.03;;;8.73;;
6858;SDS011;3468;42.824;23.240;2024-01-30T00:55:07;15.30;;;6.20;;
6858;SDS011;3468;42.824;23.240;2024-01-30T00:57:34;12.93;;;4.90;;
6858;SDS011;3468;42.824;23.240;2024-01-30T01:00:00;10.03;;;4.90;;
6858;SDS011;3468;42.824;23.240;2024-01-30T01:02:28;9.20;;;3.80;;
6858;SDS011;3468;42.824;23.240;2024-01-30T01:04:54;3.80;;;2.30;;
6858;SDS011;3468;42.824;23.240;2024-01-30T01:07:21;3.77;;;2.17;;
6858;SDS011;3468;42.824;23.240;2024-01-30T01:09:49;3.57;;;1.73;;
6858;SDS011;3468;42.824;23.240;2024-01-30T01:12:16;2.87;;;2.00;;
6858;SDS011;3468;42.824;23.240;2024-01-30T01:14:42;2.87;;;1.80;;
6858;SDS011;3468;42.824;23.240;2024-01-30T01:17:09;3.63;;;2.37;;
6858;SDS011;3468;42.824;23.240;2024-01-30T01:19:36;4.50;;;2.20;;
6858;SDS011;3468;42.824;23.240;2024-01-30T01:22:03;13.20;;;3.73;;
6858;SDS011;3468;42.824;23.240;2024-01-30T01:24:30;7.87;;;4.20;;
6858;SDS011;3468;42.824;23.240;2024-01-30T01:26:59;10.20;;;3.70;;
6858;SDS011;3468;42.824;23.240;2024-01-30T01:29:25;6.73;;;3.70;;
6858;SDS011;3468;42.824;23.240;2024-01-30T01:31:53;6.50;;;3.60;;
6858;SDS011;3468;42.824;23.240;2024-01-30T01:34:21;5.30;;;3.17;;
6858;SDS011;3468;42.824;23.240;2024-01-30T01:36:47;7.47;;;3.17;;
6858;SDS011;3468;42.824;23.240;2024-01-30T01:39:14;5.80;;;3.20;;
6858;SDS011;3468;42.824;23.240;2024-01-30T01:41:41;7.37;;;3.63;;
6858;SDS011;3468;42.824;23.240;2024-01-30T01:44:09;4.73;;;2.80;;
6858;SDS011;3468;42.824;23.240;2024-01-30T01:46:36;4.60;;;2.80;;
6858;SDS011;3468;42.824;23.240;2024-01-30T01:49:04;3.73;;;2.43;;
6858;SDS011;3468;42.824;23.240;2024-01-30T01:51:33;4.87;;;3.50;;
6858;SDS011;3468;42.824;23.240;2024-01-30T01:54:02;7.37;;;3.73;;
6858;SDS011;3468;42.824;23.240;2024-01-30T01:56:30;3.83;;;3.13;;
6858;SDS011;3468;42.824;23.240;2024-01-30T01:58:59;6.70;;;3.27;;
6858;SDS011;3468;42.824;23.240;2024-01-30T02:01:28;12.47;;;6.27;;
6858;SDS011;3468;42.824;23.240;2024-01-30T02:03:55;10.20;;;5.77;;
6858;SDS011;3468;42.824;23.240;2024-01-30T02:06:22;8.57;;;4.80;;
6858;SDS011;3468;42.824;23.240;2024-01-30T02:08:49;10.43;;;4.87;;
6858;SDS011;3468;42.824;23.240;2024-01-30T02:11:15;8.70;;;3.93;;
6858;SDS011;3468;42.824;23.240;2024-01-30T02:13:43;6.50;;;3.33;;
6858;SDS011;3468;42.824;23.240;2024-01-30T02:16:09;8.27;;;3.50;;
6858;SDS011;3468;42.824;23.240;2024-01-30T02:18:38;6.73;;;4.10;;
6858;SDS011;3468;42.824;23.240;2024-01-30T02:21:09;6.23;;;3.70;;
6858;SDS011;3468;42.824;23.240;2024-01-30T02:23:36;6.07;;;3.37;;
6858;SDS011;3468;42.824;23.240;2024-01-30T02:26:04;7.30;;;3.43;;
6858;SDS011;3468;42.824;23.240;2024-01-30T02:28:30;9.03;;;4.23;;
6858;SDS011;3468;42.824;23.240;2024-01-30T02:30:57;8.77;;;4.47;;
6858;SDS011;3468;42.824;23.240;2024-01-30T02:33:24;7.70;;;3.87;;
6858;SDS011;3468;42.824;23.240;2024-01-30T02:35:50;7.70;;;3.97;;
6858;SDS011;3468;42.824;23.240;2024-01-30T02:38:19;8.67;;;4.33;;
6858;SDS011;3468;42.824;23.240;2024-01-30T02:40:45;9.97;;;4.87;;
6858;SDS011;3468;42.824;23.240;2024-01-30T02:43:12;11.40;;;4.53;;
6858;SDS011;3468;42.824;23.240;2024-01-30T02:45:39;9.10;;;5.83;;
6858;SDS011;3468;42.824;23.240;2024-01-30T02:48:06;10.30;;;6.17;;
6858;SDS011;3468;42.824;23.240;2024-01-30T02:50:33;10.47;;;4.80;;
6858;SDS011;3468;42.824;23.240;2024-01-30T02:53:00;4.93;;;3.07;;
6858;SDS011;3468;42.824;23.240;2024-01-30T02:55:28;12.50;;;4.63;;
6858;SDS011;3468;42.824;23.240;2024-01-30T02:57:54;9.90;;;3.83;;
6858;SDS011;3468;42.824;23.240;2024-01-30T03:00:21;4.37;;;1.80;;
6858;SDS011;3468;42.824;23.240;2024-01-30T03:02:48;2.87;;;2.03;;
6858;SDS011;3468;42.824;23.240;2024-01-30T03:05:15;2.13;;;1.40;;
6858;SDS011;3468;42.824;23.240;2024-01-30T03:07:41;4.53;;;1.93;;
6858;SDS011;3468;42.824;23.240;2024-01-30T03:10:08;1.90;;;1.60;;
6858;SDS011;3468;42.824;23.240;2024-01-30T03:12:36;2.87;;;1.77;;
6858;SDS011;3468;42.824;23.240;2024-01-30T03:15:03;2.57;;;1.70;;
6858;SDS011;3468;42.824;23.240;2024-01-30T03:17:30;2.00;;;1.50;;
6858;SDS011;3468;42.824;23.240;2024-01-30T03:19:57;1.97;;;1.40;;
6858;SDS011;3468;42.824;23.240;2024-01-30T03:22:24;1.83;;;1.60;;
6858;SDS011;3468;42.824;23.240;2024-01-30T03:24:50;8.07;;;3.57;;
6858;SDS011;3468;42.824;23.240;2024-01-30T03:27:17;2.60;;;1.60;;
6858;SDS011;3468;42.824;23.240;2024-01-30T03:29:45;3.20;;;1.53;;
6858;SDS011;3468;42.824;23.240;2024-01-30T03:32:12;3.13;;;1.93;;
6858;SDS011;3468;42.824;23.240;2024-01-30T03:34:39;3.27;;;2.07;;
6858;SDS011;3468;42.824;23.240;2024-01-30T03:37:06;4.60;;;2.43;;
6858;SDS011;3468;42.824;23.240;2024-01-30T03:39:32;5.30;;;2.63;;
6858;SDS011;3468;42.824;23.240;2024-01-30T03:41:59;5.87;;;3.00;;
6858;SDS011;3468;42.824;23.240;2024-01-30T03:44:26;5.17;;;2.80;;
6858;SDS011;3468;42.824;23.240;2024-01-30T03:46:54;4.43;;;3.17;;
6858;SDS011;3468;42.824;23.240;2024-01-30T03:49:21;6.23;;;3.27;;
6858;SDS011;3468;42.824;23.240;2024-01-30T03:51:47;4.90;;;2.97;;
6858;SDS011;3468;42.824;23.240;2024-01-30T03:54:14;7.77;;;4.23;;
6858;SDS011;3468;42.824;23.240;2024-01-30T03:56:41;12.00;;;5.30;;
6858;SDS011;3468;42.824;23.240;2024-01-30T03:59:08;9.83;;;5.27;;
6858;SDS011;3468;42.824;23.240;2024-01-30T04:01:34;10.02;;;5.25;;
6858;SDS011;3468;42.824;23.240;2024-01-30T04:04:02;9.13;;;4.43;;
6858;SDS011;3468;42.824;23.240;2024-01-30T04:06:29;8.93;;;4.33;;
6858;SDS011;3468;42.824;23.240;2024-01-30T04:08:56;7.03;;;3.90;;
6858;SDS011;3468;42.824;23.240;2024-01-30T04:11:23;8.33;;;3.60;;
6858;SDS011;3468;42.824;23.240;2024-01-30T04:13:50;5.93;;;3.43;;
6858;SDS011;3468;42.824;23.240;2024-01-30T04:16:20;11.33;;;3.63;;
6858;SDS011;3468;42.824;23.240;2024-01-30T04:18:47;8.80;;;5.03;;
6858;SDS011;3468;42.824;23.240;2024-01-30T04:21:15;8.77;;;4.40;;
6858;SDS011;3468;42.824;23.240;2024-01-30T04:23:42;11.47;;;5.43;;
6858;SDS011;3468;42.824;23.240;2024-01-30T04:26:09;11.00;;;4.50;;
6858;SDS011;3468;42.824;23.240;2024-01-30T04:28:35;7.20;;;4.13;;
6858;SDS011;3468;42.824;23.240;2024-01-30T04:31:02;6.20;;;3.57;;
6858;SDS011;3468;42.824;23.240;2024-01-30T04:33:29;6.90;;;3.43;;
6858;SDS011;3468;42.824;23.240;2024-01-30T04:35:55;6.00;;;2.70;;
6858;SDS011;3468;42.824;23.240;2024-01-30T04:38:23;7.77;;;2.73;;
6858;SDS011;3468;42.824;23.240;2024-01-30T04:40:50;6.23;;;2.60;;
6858;SDS011;3468;42.824;23.240;2024-01-30T04:43:17;5.17;;;2.40;;
6858;SDS011;3468;42.824;23.240;2024-01-30T04:45:44;11.53;;;3.43;;
6858;SDS011;3468;42.824;23.240;2024-01-30T04:48:11;7.07;;;3.20;;
6858;SDS011;3468;42.824;23.240;2024-01-30T04:50:38;7.70;;;2.90;;
6858;SDS011;3468;42.824;23.240;2024-01-30T04:53:04;5.03;;;3.30;;
6858;SDS011;3468;42.824;23.240;2024-01-30T04:55:32;6.70;;;3.73;;
6858;SDS011;3468;42.824;23.240;2024-01-30T04:57:59;4.87;;;3.13;;
6858;SDS011;3468;42.824;23.240;2024-01-30T05:00:26;9.57;;;4.40;;
6858;SDS011;3468;42.824;23.240;2024-01-30T05:02:54;9.77;;;4.60;;
6858;SDS011;3468;42.824;23.240;2024-01-30T05:05:21;9.80;;;4.40;;
6858;SDS011;3468;42.824;23.240;2024-01-30T05:07:47;7.80;;;4.20;;
6858;SDS011;3468;42.824;23.240;2024-01-30T05:10:14;10.20;;;3.63;;
6858;SDS011;3468;42.824;23.240;2024-01-30T05:12:42;14.80;;;4.00;;
6858;SDS011;3468;42.824;23.240;2024-01-30T05:15:09;7.50;;;3.60;;
6858;SDS011;3468;42.824;23.240;2024-01-30T05:17:36;7.70;;;4.70;;
6858;SDS011;3468;42.824;23.240;2024-01-30T05:20:03;12.50;;;5.97;;
6858;SDS011;3468;42.824;23.240;2024-01-30T05:22:31;10.37;;;5.07;;
6858;SDS011;3468;42.824;23.240;2024-01-30T05:24:57;10.60;;;5.50;;
6858;SDS011;3468;42.824;23.240;2024-01-30T05:27:24;13.20;;;5.80;;
6858;SDS011;3468;42.824;23.240;2024-01-30T05:29:52;18.07;;;7.97;;
6858;SDS011;3468;42.824;23.240;2024-01-30T05:32:19;44.40;;;16.30;;
6858;SDS011;3468;42.824;23.240;2024-01-30T05:34:45;83.07;;;28.63;;
6858;SDS011;3468;42.824;23.240;2024-01-30T05:37:12;81.20;;;26.90;;
6858;SDS011;3468;42.824;23.240;2024-01-30T05:39:42;73.37;;;22.10;;
6858;SDS011;3468;42.824;23.240;2024-01-30T05:42:08;58.40;;;19.93;;
6858;SDS011;3468;42.824;23.240;2024-01-30T05:44:35;75.13;;;22.77;;
6858;SDS011;3468;42.824;23.240;2024-01-30T05:47:03;38.77;;;13.60;;
6858;SDS011;3468;42.824;23.240;2024-01-30T05:49:30;45.40;;;13.90;;
6858;SDS011;3468;42.824;23.240;2024-01-30T05:51:57;22.93;;;9.13;;
6858;SDS011;3468;42.824;23.240;2024-01-30T05:54:24;17.17;;;8.43;;
6858;SDS011;3468;42.824;23.240;2024-01-30T05:56:50;22.87;;;7.73;;
6858;SDS011;3468;42.824;23.240;2024-01-30T05:59:17;17.87;;;7.73;;
6858;SDS011;3468;42.824;23.240;2024-01-30T06:01:45;21.43;;;9.47;;
6858;SDS011;3468;42.824;23.240;2024-01-30T06:04:14;21.50;;;8.90;;
6858;SDS011;3468;42.824;23.240;2024-01-30T06:06:40;13.60;;;7.03;;
6858;SDS011;3468;42.824;23.240;2024-01-30T06:09:07;11.50;;;5.77;;
6858;SDS011;3468;42.824;23.240;2024-01-30T06:11:34;8.73;;;5.20;;
6858;SDS011;3468;42.824;23.240;2024-01-30T06:14:01;12.47;;;4.70;;
6858;SDS011;3468;42.824;23.240;2024-01-30T06:16:28;10.07;;;4.83;;
6858;SDS011;3468;42.824;23.240;2024-01-30T06:18:55;9.87;;;4.30;;
6858;SDS011;3468;42.824;23.240;2024-01-30T06:21:23;10.17;;;4.83;;
6858;SDS011;3468;42.824;23.240;2024-01-30T06:23:51;12.00;;;5.83;;
6858;SDS011;3468;42.824;23.240;2024-01-30T06:26:18;11.97;;;5.60;;
6858;SDS011;3468;42.824;23.240;2024-01-30T06:28:45;6.53;;;3.70;;
6858;SDS011;3468;42.824;23.240;2024-01-30T06:31:11;7.70;;;4.40;;
6858;SDS011;3468;42.824;23.240;2024-01-30T06:33:38;10.67;;;5.33;;
6858;SDS011;3468;42.824;23.240;2024-01-30T06:36:07;12.77;;;5.53;;
6858;SDS011;3468;42.824;23.240;2024-01-30T06:38:35;11.70;;;5.40;;
6858;SDS011;3468;42.824;23.240;2024-01-30T06:41:02;8.63;;;4.93;;
6858;SDS011;3468;42.824;23.240;2024-01-30T06:43:29;7.83;;;3.60;;
6858;SDS011;3468;42.824;23.240;2024-01-30T06:45:56;5.70;;;3.73;;
6858;SDS011;3468;42.824;23.240;2024-01-30T06:48:23;5.90;;;3.57;;
6858;SDS011;3468;42.824;23.240;2024-01-30T06:50:50;7.43;;;4.10;;
6858;SDS011;3468;42.824;23.240;2024-01-30T06:53:19;6.57;;;4.30;;
6858;SDS011;3468;42.824;23.240;2024-01-30T06:55:47;6.83;;;4.00;;
6858;SDS011;3468;42.824;23.240;2024-01-30T06:58:14;9.37;;;4.80;;
6858;SDS011;3468;42.824;23.240;2024-01-30T07:00:41;5.70;;;3.60;;
6858;SDS011;3468;42.824;23.240;2024-01-30T07:03:07;6.37;;;3.17;;
6858;SDS011;3468;42.824;23.240;2024-01-30T07:05:34;10.30;;;3.60;;
6858;SDS011;3468;42.824;23.240;2024-01-30T07:08:01;5.93;;;3.50;;
6858;SDS011;3468;42.824;23.240;2024-01-30T07:10:27;6.93;;;3.80;;
6858;SDS011;3468;42.824;23.240;2024-01-30T07:12:55;6.03;;;3.50;;
6858;SDS011;3468;42.824;23.240;2024-01-30T07:15:22;5.13;;;3.20;;
6858;SDS011;3468;42.824;23.240;2024-01-30T07:17:49;4.60;;;2.93;;
6858;SDS011;3468;42.824;23.240;2024-01-30T07:20:15;5.13;;;3.00;;
6858;SDS011;3468;42.824;23.240;2024-01-30T07:22:45;5.73;;;3.63;;
6858;SDS011;3468;42.824;23.240;2024-01-30T07:25:12;6.53;;;3.50;;
6858;SDS011;3468;42.824;23.240;2024-01-30T07:27:39;7.30;;;3.40;;
6858;SDS011;3468;42.824;23.240;2024-01-30T07:30:07;7.53;;;3.40;;
6858;SDS011;3468;42.824;23.240;2024-01-30T07:32:34;5.53;;;3.33;;
6858;SDS011;3468;42.824;23.240;2024-01-30T07:35:01;5.10;;;3.37;;
6858;SDS011;3468;42.824;23.240;2024-01-30T07:37:28;6.73;;;4.37;;
6858;SDS011;3468;42.824;23.240;2024-01-30T07:39:54;13.50;;;7.00;;
6858;SDS011;3468;42.824;23.240;2024-01-30T07:42:21;7.47;;;3.90;;
6858;SDS011;3468;42.824;23.240;2024-01-30T07:44:48;4.93;;;2.43;;
6858;SDS011;3468;42.824;23.240;2024-01-30T07:47:16;9.73;;;4.33;;
6858;SDS011;3468;42.824;23.240;2024-01-30T07:49:42;7.00;;;3.10;;
6858;SDS011;3468;42.824;23.240;2024-01-30T07:52:09;5.00;;;3.23;;
6858;SDS011;3468;42.824;23.240;2024-01-30T07:54:48;4.80;;;2.30;;
6858;SDS011;3468;42.824;23.240;2024-01-30T07:57:14;3.30;;;2.30;;
6858;SDS011;3468;42.824;23.240;2024-01-30T07:59:41;4.40;;;2.50;;
6858;SDS011;3468;42.824;23.240;2024-01-30T08:02:09;4.00;;;2.10;;
6858;SDS011;3468;42.824;23.240;2024-01-30T08:04:37;3.60;;;2.50;;
6858;SDS011;3468;42.824;23.240;2024-01-30T08:07:03;3.90;;;2.50;;
6858;SDS011;3468;42.824;23.240;2024-01-30T08:09:30;4.33;;;2.07;;
6858;SDS011;3468;42.824;23.240;2024-01-30T08:11:57;4.10;;;2.50;;
6858;SDS011;3468;42.824;23.240;2024-01-30T08:14:23;4.13;;;2.60;;
6858;SDS011;3468;42.824;23.240;2024-01-30T08:16:51;3.03;;;2.10;;
6858;SDS011;3468;42.824;23.240;2024-01-30T08:19:18;3.20;;;2.17;;
6858;SDS011;3468;42.824;23.240;2024-01-30T08:21:46;3.27;;;2.27;;
6858;SDS011;3468;42.824;23.240;2024-01-30T08:24:13;2.77;;;2.00;;
6858;SDS011;3468;42.824;23.240;2024-01-30T08:26:40;4.27;;;2.47;;
6858;SDS011;3468;42.824;23.240;2024-01-30T08:29:06;2.90;;;1.87;;
6858;SDS011;3468;42.824;23.240;2024-01-30T08:31:33;4.07;;;1.90;;
6858;SDS011;3468;42.824;23.240;2024-01-30T08:34:00;6.47;;;2.83;;
6858;SDS011;3468;42.824;23.240;2024-01-30T08:36:27;3.97;;;2.33;;
6858;SDS011;3468;42.824;23.240;2024-01-30T08:38:55;3.10;;;1.90;;
6858;SDS011;3468;42.824;23.240;2024-01-30T08:41:22;3.90;;;2.50;;
6858;SDS011;3468;42.824;23.240;2024-01-30T08:43:49;4.40;;;2.40;;
6858;SDS011;3468;42.824;23.240;2024-01-30T08:46:17;4.67;;;2.60;;
6858;SDS011;3468;42.824;23.240;2024-01-30T08:48:44;3.13;;;2.10;;
6858;SDS011;3468;42.824;23.240;2024-01-30T08:51:11;3.17;;;2.10;;
6858;SDS011;3468;42.824;23.240;2024-01-30T08:53:39;2.90;;;2.07;;
6858;SDS011;3468;42.824;23.240;2024-01-30T08:56:07;3.90;;;2.23;;
6858;SDS011;3468;42.824;23.240;2024-01-30T08:58:34;4.67;;;2.60;;
6858;SDS011;3468;42.824;23.240;2024-01-30T09:01:01;3.93;;;2.30;;
6858;SDS011;3468;42.824;23.240;2024-01-30T09:03:29;2.87;;;1.73;;
6858;SDS011;3468;42.824;23.240;2024-01-30T09:05:55;4.67;;;2.53;;
6858;SDS011;3468;42.824;23.240;2024-01-30T09:08:22;8.70;;;3.27;;
6858;SDS011;3468;42.824;23.240;2024-01-30T09:10:49;4.83;;;2.93;;
6858;SDS011;3468;42.824;23.240;2024-01-30T09:13:17;4.40;;;2.27;;
6858;SDS011;3468;42.824;23.240;2024-01-30T09:15:44;4.33;;;2.27;;
6858;SDS011;3468;42.824;23.240;2024-01-30T09:18:11;3.07;;;2.17;;
6858;SDS011;3468;42.824;23.240;2024-01-30T09:20:37;3.73;;;2.30;;
6858;SDS011;3468;42.824;23.240;2024-01-30T09:23:04;3.23;;;1.93;;
6858;SDS011;3468;42.824;23.240;2024-01-30T09:25:31;5.70;;;2.33;;
6858;SDS011;3468;42.824;23.240;2024-01-30T09:27:59;2.90;;;2.03;;
6858;SDS011;3468;42.824;23.240;2024-01-30T09:30:27;3.23;;;2.03;;
6858;SDS011;3468;42.824;23.240;2024-01-30T09:32:53;2.77;;;2.30;;
6858;SDS011;3468;42.824;23.240;2024-01-30T09:35:20;4.13;;;2.50;;
6858;SDS011;3468;42.824;23.240;2024-01-30T09:37:47;4.90;;;2.40;;
6858;SDS011;3468;42.824;23.240;2024-01-30T09:40:14;3.10;;;2.10;;
6858;SDS011;3468;42.824;23.240;2024-01-30T09:42:44;4.13;;;2.30;;
6858;SDS011;3468;42.824;23.240;2024-01-30T09:45:13;2.37;;;1.73;;
6858;SDS011;3468;42.824;23.240;2024-01-30T09:47:42;2.63;;;1.97;;
6858;SDS011;3468;42.824;23.240;2024-01-30T09:50:10;3.07;;;1.93;;
6858;SDS011;3468;42.824;23.240;2024-01-30T09:52:37;3.00;;;2.10;;
6858;SDS011;3468;42.824;23.240;2024-01-30T09:55:04;3.83;;;2.10;;
6858;SDS011;3468;42.824;23.240;2024-01-30T09:57:32;3.07;;;2.00;;
6858;SDS011;3468;42.824;23.240;2024-01-30T09:59:59;3.53;;;1.97;;
6858;SDS011;3468;42.824;23.240;2024-01-30T10:02:25;5.03;;;2.40;;
6858;SDS011;3468;42.824;23.240;2024-01-30T10:04:55;3.50;;;2.20;;
6858;SDS011;3468;42.824;23.240;2024-01-30T10:07:21;3.17;;;2.37;;
6858;SDS011;3468;42.824;23.240;2024-01-30T10:09:48;2.60;;;2.20;;
6858;SDS011;3468;42.824;23.240;2024-01-30T10:12:15;4.53;;;2.23;;
6858;SDS011;3468;42.824;23.240;2024-01-30T10:14:42;4.07;;;2.40;;
6858;SDS011;3468;42.824;23.240;2024-01-30T10:17:09;4.17;;;2.57;;
6858;SDS011;3468;42.824;23.240;2024-01-30T10:19:37;3.93;;;2.20;;
6858;SDS011;3468;42.824;23.240;2024-01-30T10:22:07;4.77;;;2.57;;
6858;SDS011;3468;42.824;23.240;2024-01-30T10:24:34;3.87;;;2.17;;
6858;SDS011;3468;42.824;23.240;2024-01-30T10:27:01;4.40;;;2.37;;
6858;SDS011;3468;42.824;23.240;2024-01-30T10:29:27;5.33;;;2.20;;
6858;SDS011;3468;42.824;23.240;2024-01-30T10:31:58;4.37;;;2.87;;
6858;SDS011;3468;42.824;23.240;2024-01-30T10:34:25;4.33;;;2.50;;
6858;SDS011;3468;42.824;23.240;2024-01-30T10:36:58;7.83;;;2.27;;
6858;SDS011;3468;42.824;23.240;2024-01-30T10:39:29;3.80;;;2.43;;
6858;SDS011;3468;42.824;23.240;2024-01-30T10:41:59;5.63;;;2.63;;
6858;SDS011;3468;42.824;23.240;2024-01-30T10:44:34;2.40;;;1.90;;
6858;SDS011;3468;42.824;23.240;2024-01-30T10:47:06;3.87;;;2.60;;
6858;SDS011;3468;42.824;23.240;2024-01-30T10:49:36;4.03;;;1.97;;
6858;SDS011;3468;42.824;23.240;2024-01-30T10:52:04;5.33;;;2.70;;
6858;SDS011;3468;42.824;23.240;2024-01-30T10:54:33;5.67;;;2.40;;
6858;SDS011;3468;42.824;23.240;2024-01-30T10:57:02;4.50;;;2.37;;
6858;SDS011;3468;42.824;23.240;2024-01-30T10:59:30;3.83;;;2.50;;
6858;SDS011;3468;42.824;23.240;2024-01-30T11:01:59;3.10;;;2.13;;
6858;SDS011;3468;42.824;23.240;2024-01-30T11:04:26;3.30;;;2.37;;
6858;SDS011;3468;42.824;23.240;2024-01-30T11:06:58;2.83;;;2.03;;
6858;SDS011;3468;42.824;23.240;2024-01-30T11:09:28;2.97;;;1.93;;
6858;SDS011;3468;42.824;23.240;2024-01-30T11:11:57;7.17;;;2.27;;
6858;SDS011;3468;42.824;23.240;2024-01-30T11:14:25;4.13;;;2.40;;
6858;SDS011;3468;42.824;23.240;2024-01-30T11:16:52;4.27;;;2.40;;
6858;SDS011;3468;42.824;23.240;2024-01-30T11:19:22;3.70;;;1.80;;
6858;SDS011;3468;42.824;23.240;2024-01-30T11:21:50;4.83;;;2.30;;
6858;SDS011;3468;42.824;23.240;2024-01-30T11:24:19;3.90;;;2.17;;
6858;SDS011;3468;42.824;23.240;2024-01-30T11:26:47;4.30;;;2.20;;
6858;SDS011;3468;42.824;23.240;2024-01-30T11:29:15;3.40;;;1.80;;
6858;SDS011;3468;42.824;23.240;2024-01-30T11:31:51;3.63;;;2.33;;
6858;SDS011;3468;42.824;23.240;2024-01-30T11:34:18;3.20;;;2.20;;
6858;SDS011;3468;42.824;23.240;2024-01-30T11:36:46;5.13;;;2.20;;
6858;SDS011;3468;42.824;23.240;2024-01-30T11:39:24;4.33;;;2.30;;
6858;SDS011;3468;42.824;23.240;2024-01-30T11:41:51;4.37;;;2.23;;
6858;SDS011;3468;42.824;23.240;2024-01-30T11:44:20;4.97;;;2.40;;
6858;SDS011;3468;42.824;23.240;2024-01-30T11:46:48;5.87;;;2.67;;
6858;SDS011;3468;42.824;23.240;2024-01-30T11:49:15;13.10;;;3.90;;
6858;SDS011;3468;42.824;23.240;2024-01-30T11:51:42;3.47;;;2.27;;
6858;SDS011;3468;42.824;23.240;2024-01-30T11:54:09;3.17;;;2.30;;
6858;SDS011;3468;42.824;23.240;2024-01-30T11:56:36;5.13;;;2.73;;
6858;SDS011;3468;42.824;23.240;2024-01-30T11:59:03;4.63;;;2.47;;
6858;SDS011;3468;42.824;23.240;2024-01-30T12:01:31;3.27;;;2.37;;
6858;SDS011;3468;42.824;23.240;2024-01-30T12:03:59;4.60;;;2.40;;
6858;SDS011;3468;42.824;23.240;2024-01-30T12:06:26;5.33;;;2.33;;
6858;SDS011;3468;42.824;23.240;2024-01-30T12:08:56;3.83;;;2.40;;
6858;SDS011;3468;42.824;23.240;2024-01-30T12:11:24;3.47;;;2.27;;
6858;SDS011;3468;42.824;23.240;2024-01-30T12:13:51;2.97;;;2.23;;
6858;SDS011;3468;42.824;23.240;2024-01-30T12:16:19;4.60;;;2.67;;
6858;SDS011;3468;42.824;23.240;2024-01-30T12:18:49;10.07;;;3.93;;
6858;SDS011;3468;42.824;23.240;2024-01-30T12:21:25;4.00;;;2.50;;
6858;SDS011;3468;42.824;23.240;2024-01-30T12:23:51;3.90;;;2.57;;
6858;SDS011;3468;42.824;23.240;2024-01-30T12:26:18;6.93;;;3.07;;
6858;SDS011;3468;42.824;23.240;2024-01-30T12:28:48;8.53;;;3.70;;
6858;SDS011;3468;42.824;23.240;2024-01-30T12:31:15;9.33;;;3.40;;
6858;SDS011;3468;42.824;23.240;2024-01-30T12:33:42;4.33;;;2.47;;
6858;SDS011;3468;42.824;23.240;2024-01-30T12:36:11;4.87;;;3.13;;
6858;SDS011;3468;42.824;23.240;2024-01-30T12:38:38;7.37;;;3.50;;
6858;SDS011;3468;42.824;23.240;2024-01-30T12:41:06;3.67;;;2.63;;
6858;SDS011;3468;42.824;23.240;2024-01-30T12:43:33;2.97;;;2.57;;
6858;SDS011;3468;42.824;23.240;2024-01-30T12:46:00;4.50;;;2.87;;
6858;SDS011;3468;42.824;23.240;2024-01-30T12:48:27;3.83;;;2.20;;
6858;SDS011;3468;42.824;23.240;2024-01-30T12:50:55;3.20;;;2.27;;
6858;SDS011;3468;42.824;23.240;2024-01-30T12:53:23;3.97;;;2.40;;
6858;SDS011;3468;42.824;23.240;2024-01-30T12:55:50;4.80;;;2.97;;
6858;SDS011;3468;42.824;23.240;2024-01-30T12:58:18;6.63;;;3.20;;
6858;SDS011;3468;42.824;23.240;2024-01-30T13:00:45;3.43;;;2.33;;
6858;SDS011;3468;42.824;23.240;2024-01-30T13:03:12;7.83;;;3.07;;
6858;SDS011;3468;42.824;23.240;2024-01-30T13:05:39;3.50;;;2.30;;
6858;SDS011;3468;42.824;23.240;2024-01-30T13:08:05;5.47;;;2.70;;
6858;SDS011;3468;42.824;23.240;2024-01-30T13:10:34;4.83;;;3.20;;
6858;SDS011;3468;42.824;23.240;2024-01-30T13:13:01;4.23;;;2.17;;
6858;SDS011;3468;42.824;23.240;2024-01-30T13:15:27;5.90;;;2.83;;
6858;SDS011;3468;42.824;23.240;2024-01-30T13:17:54;3.43;;;2.47;;
6858;SDS011;3468;42.824;23.240;2024-01-30T13:20:21;4.63;;;2.13;;
6858;SDS011;3468;42.824;23.240;2024-01-30T13:22:48;5.27;;;2.83;;
6858;SDS011;3468;42.824;23.240;2024-01-30T13:25:15;3.33;;;2.20;;
6858;SDS011;3468;42.824;23.240;2024-01-30T13:27:43;3.77;;;2.43;;
6858;SDS011;3468;42.824;23.240;2024-01-30T13:30:10;4.93;;;3.50;;
6858;SDS011;3468;42.824;23.240;2024-01-30T13:32:38;4.17;;;2.43;;
6858;SDS011;3468;42.824;23.240;2024-01-30T13:35:06;5.73;;;2.90;;
6858;SDS011;3468;42.824;23.240;2024-01-30T13:37:33;5.50;;;2.97;;
6858;SDS011;3468;42.824;23.240;2024-01-30T13:40:00;5.60;;;3.03;;
6858;SDS011;3468;42.824;23.240;2024-01-30T13:42:27;4.73;;;2.97;;
6858;SDS011;3468;42.824;23.240;2024-01-30T13:44:55;4.77;;;2.80;;
6858;SDS011;3468;42.824;23.240;2024-01-30T13:47:22;4.50;;;2.90;;
6858;SDS011;3468;42.824;23.240;2024-01-30T13:49:48;8.07;;;2.70;;
6858;SDS011;3468;42.824;23.240;2024-01-30T13:52:15;5.27;;;2.47;;
6858;SDS011;3468;42.824;23.240;2024-01-30T13:54:42;4.27;;;3.00;;
6858;SDS011;3468;42.824;23.240;2024-01-30T13:57:09;5.43;;;2.60;;
6858;SDS011;3468;42.824;23.240;2024-01-30T13:59:37;3.47;;;2.27;;
6858;SDS011;3468;42.824;23.240;2024-01-30T14:02:05;5.87;;;2.70;;
6858;SDS011;3468;42.824;23.240;2024-01-30T14:04:33;5.80;;;2.97;;
6858;SDS011;3468;42.824;23.240;2024-01-30T14:07:02;4.33;;;2.40;;
6858;SDS011;3468;42.824;23.240;2024-01-30T14:09:29;7.13;;;3.50;;
6858;SDS011;3468;42.824;23.240;2024-01-30T14:11:57;3.50;;;2.30;;
6858;SDS011;3468;42.824;23.240;2024-01-30T14:14:24;4.47;;;3.00;;
6858;SDS011;3468;42.824;23.240;2024-01-30T14:16:50;5.77;;;2.80;;
6858;SDS011;3468;42.824;23.240;2024-01-30T14:19:18;6.63;;;3.30;;
6858;SDS011;3468;42.824;23.240;2024-01-30T14:21:45;5.53;;;2.87;;
6858;SDS011;3468;42.824;23.240;2024-01-30T14:24:12;6.87;;;3.27;;
6858;SDS011;3468;42.824;23.240;2024-01-30T14:26:39;4.93;;;2.83;;
6858;SDS011;3468;42.824;23.240;2024-01-30T14:29:05;7.00;;;3.37;;
6858;SDS011;3468;42.824;23.240;2024-01-30T14:31:32;7.30;;;4.10;;
6858;SDS011;3468;42.824;23.240;2024-01-30T14:33:59;9.97;;;4.37;;
6858;SDS011;3468;42.824;23.240;2024-01-30T14:36:27;6.83;;;3.13;;
6858;SDS011;3468;42.824;23.240;2024-01-30T14:38:54;8.13;;;2.97;;
6858;SDS011;3468;42.824;23.240;2024-01-30T14:41:21;6.00;;;3.50;;
6858;SDS011;3468;42.824;23.240;2024-01-30T14:43:48;5.63;;;2.63;;
6858;SDS011;3468;42.824;23.240;2024-01-30T14:46:15;8.77;;;3.70;;
6858;SDS011;3468;42.824;23.240;2024-01-30T14:48:42;5.60;;;3.30;;
6858;SDS011;3468;42.824;23.240;2024-01-30T14:51:09;5.70;;;3.00;;
6858;SDS011;3468;42.824;23.240;2024-01-30T14:53:37;7.17;;;3.43;;
6858;SDS011;3468;42.824;23.240;2024-01-30T14:56:04;5.50;;;3.80;;
6858;SDS011;3468;42.824;23.240;2024-01-30T14:58:31;4.97;;;2.77;;